• Join FlightAware (Why Join?)
  • Login
  • US Flag 
 
10:47PM EST


 

Airport Tracker/Info


-or-


 

Live Flight TrackerFlight Track Log ✈ N302SJ ✈ 14-Jun-2013 ✈ KMTN - KLYH

Flight Track Log - Related Links

Times and Time Zones

All times are in EDT time to prevent confusion due to time zone crossing. See the N302SJ flight status page for this flight to view local times or setup timezone preferences in your user account.

Time Position Orientation Groundspeed Altitude Reporting Facility
EDT Latitude Longitude Course Direction KTS MPH feet Rate Location/Type
12:30PM 39.3333 -76.5667 243° Southwest 261 300 4,800  Level Potomac TRACON
12:31PM 39.3167 -76.6500 256° West 228 262 7,700 2,640 Climbing Potomac TRACON
12:32PM 39.3000 -76.7167 252° West 242 278 10,100 2,400 Climbing Potomac TRACON
12:33PM 39.2667 -76.8000 243° Southwest 236 272 12,600 2,280 Climbing Potomac TRACON
12:35PM 39.0125 -76.7888 225° Southwest  Level FlightAware Approximate
12:35PM 39.2247 -76.9525 250° West 227 261 16,900  Level Washington Center
12:36PM 39.2000 -77.0500 252° West 296 341 17,000 180 Climbing Potomac TRACON
12:37PM 39.1333 -77.1333 224° Southwest 328 377 17,300 480 Climbing Potomac TRACON
12:38PM 39.0667 -77.1833 210° Southwest 321 369 18,000 300 Climbing Potomac TRACON
12:39PM 38.9833 -77.2333 205° Southwest 344 396 18,000 -120 Level Potomac TRACON
12:40PM 38.9000 -77.2833 205° Southwest 357 411 17,800  Descending Potomac TRACON
12:41PM 38.8000 -77.3333 201° Southwest 355 409 18,000 60 Climbing Potomac TRACON
12:42PM 38.7167 -77.3833 205° Southwest 364 419 18,000  Level Potomac TRACON
12:43PM 38.6239 -77.4411 206° Southwest 364 419 18,000  Level Washington Center
12:44PM 38.5314 -77.4947 204° Southwest 364 419 18,000  Level Washington Center
12:45PM 38.4431 -77.5481 205° Southwest 364 419 18,000  Level Washington Center
12:46PM 38.3644 -77.6306 219° Southwest 364 419 18,000  Level Washington Center
12:47PM 38.2981 -77.7267 229° Southwest 364 419 18,000  Level Washington Center
12:48PM 38.2422 -77.8256 234° Southwest 359 413 18,000  Level Washington Center
12:49PM 38.1797 -77.9242 231° Southwest 359 413 18,000  Level Washington Center
12:50PM 38.1175 -78.0200 230° Southwest 359 413 18,000  Level Washington Center
12:51PM 38.0550 -78.1156 230° Southwest 359 413 18,000 -300 Level Washington Center
12:52PM 37.9967 -78.2058 231° Southwest 359 413 17,500 -720 Descending Washington Center
12:53PM 37.9342 -78.3008 230° Southwest 354 407 16,600 -900 Descending Washington Center
12:54PM 37.8714 -78.3961 230° Southwest 354 407 15,700 -900 Descending Washington Center
12:55PM 37.8131 -78.4833 230° Southwest 349 402 14,900 -960 Descending Washington Center
12:56PM 37.7611 -78.5653 231° Southwest 344 396 13,900 -1,140 Descending Washington Center
12:57PM 37.7006 -78.6522 229° Southwest 344 396 12,600 -1,200 Descending Washington Center
12:58PM 37.6419 -78.7417 230° Southwest 344 396 11,600 -1,140 Descending Washington Center
12:59PM 37.5789 -78.8358 230° Southwest 339 390 10,400 -840 Descending Washington Center
01:00PM 37.5244 -78.9147 229° Southwest 323 372 10,000 -1,440 Descending Washington Center
01:01PM 37.4681 -78.9961 229° Southwest 318 366 7,500 -2,820 Descending Washington Center
01:02PM 37.4136 -79.0694 227° Southwest 308 354 4,300 -2,460 Descending Washington Center
01:03PM 37.3617 -79.1378 226° Southwest 294 338 2,700 -1,380 Descending Washington Center
01:04PM 37.3142 -79.1903 221° Southwest 276 318 1,700 -780 Descending Washington Center
01:05PM 37.3028 -79.2186 243° Southwest 176 203 1,200 -420 Descending Washington Center
01:06PM 37.3222 -79.2039 31° Northeast 41 47 900 -300 Descending Washington Center